Kasserine, Tunisia
Current Conditions -  °F | °C
As of 1:00 PM on Tuesday 27 Jan 2015 (Local Time) from DABS Reporting Station
Broken Clouds Broken Clouds  
Wind Chill: 37°   Ceiling: 23000
Heat Index: 45°   Visibility: 6mi
Dew Point: 32°   Wind: 16mph
Humidity: 61%   Direction: 320°NW
Pressure: 30.15"   Gusts: NA
Location:  35.17°N, 8.83°E
Report Text: DABS 271200Z 32014KT 9999 SCT033 BKN230 07/M00 Q1021
Loading
Personal Weather Stations






























Interactive Weather Map New forecast layout! Learn more

10-Day Weather Forecast

Advertisements
Track Severe Weather on mobile